首页
METAR-TAF:

METAR-TAF

机场 :

杰尔, 匈牙利

纬度: 47-37-28N, 经度: 017-48-49E, 海拔: 129米

当前天气观测

该预报发布于43分钟前的19:45 UTC
风速7节,风向北转西北
温度 13°C
湿度 67%
气压 1020 hPa
能见度10公里或以上
1500米以下无云,无积雨云

METAR: LHPR 291945Z AUTO 33007KT CAVOK 13/07 Q1020

时间: 22:28 (20:28 UTC)

预报

该预报发布于3小时和13分钟前的17:15 UTC
预报有效从29日的 18点(UTC)到 30日的 03点(UTC)
风速15节,风向北转西北,有时为25节阵风
能见度10公里或以上
1500米以下无云,无积雨云
成为
从 29日的 18点(UTC)到 29日的 21点(UTC)
风速9节,风向北转西北

TAF: LHPR 291715Z 2918/3003 33015G25KT CAVOK BECMG 2918/2921 34009KT

超过4000个机场的气象观测和天气预报(METAR&TAF报告)。

可查询的气象台以黄色和红色小点在地图上表示。

将鼠标移到小点上方,可查看气象台名称。

然后点击查看天气观测和预报。

如需切换地图:点击带黑十字的绿色按钮放大地图;点击带横线的绿色按钮缩小地图;或者点击绿色箭头查看邻近地区的地图。


METAR-TAF: